Time;durP1;ratioP1;P1;durP2;ratioP2;P2;SDS_P1;SDS_P2;PMS_P1;PMS_P2;Temp;Humidity;BMP_temperature;BMP_pressure;BME280_temperature;BME280_humidity;BME280_pressure;Samples;Min_cycle;Max_cycle;Signal;HPM_P1;HPM_P2
2022/09/22 00:02:19;;;;;;;7.40;5.75;;;;;;;11.41;75.84;99835.53;4877899;29;20049;-86
2022/09/22 00:04:45;;;;;;;7.50;5.82;;;;;;;11.22;76.04;99794.09;4888780;29;20064;-83
2022/09/22 00:07:11;;;;;;;9.05;5.63;;;;;;;11.52;76.26;99832.81;4858931;29;20041;-83
2022/09/22 00:09:37;;;;;;;7.57;5.30;;;;;;;11.55;75.84;99836.22;4879848;29;20179;-84
2022/09/22 00:12:12;;;;;;;7.80;5.10;;;;;;;11.61;76.32;99850.91;4855407;29;20041;-82
2022/09/22 00:14:38;;;;;;;8.38;5.90;;;;;;;11.71;75.82;99849.06;4888727;29;20458;-85
2022/09/22 00:17:05;;;;;;;7.45;5.82;;;;;;;11.96;76.03;99891.34;4869377;29;20044;-83
2022/09/22 00:19:36;;;;;;;8.25;6.18;;;;;;;11.43;75.95;99813.78;4857159;29;20072;-85
2022/09/22 00:22:04;;;;;;;8.15;5.72;;;;;;;11.63;75.96;99837.88;4873872;29;20049;-84
2022/09/22 00:24:30;;;;;;;7.60;5.63;;;;;;;11.60;75.76;99863.09;4875066;29;20041;-84
2022/09/22 00:26:58;;;;;;;9.35;6.40;;;;;;;11.65;76.15;99865.66;4875048;29;20041;-82
2022/09/22 00:29:26;;;;;;;7.80;6.13;;;;;;;11.42;75.70;99832.91;4878001;29;20413;-84
2022/09/22 00:31:53;;;;;;;10.23;5.88;;;;;;;11.70;75.54;99887.31;4887411;29;20077;-83
2022/09/22 00:34:22;;;;;;;9.50;6.75;;;;;;;11.52;75.65;99859.72;4865775;29;20490;-84
2022/09/22 00:36:48;;;;;;;9.93;6.88;;;;;;;11.50;76.34;99864.06;4882842;29;20056;-82
2022/09/22 00:39:15;;;;;;;8.32;6.75;;;;;;;11.44;76.03;99846.78;4869363;29;20056;-82
2022/09/22 00:41:44;;;;;;;8.38;6.85;;;;;;;11.49;75.85;99846.72;4876911;29;20060;-82
2022/09/22 00:44:25;;;;;;;8.75;7.10;;;;;;;11.70;75.99;99865.56;4874378;29;20140;-84
2022/09/22 00:46:57;;;;;;;10.30;7.25;;;;;;;11.64;76.12;99853.50;4858365;29;20060;-83
2022/09/22 00:49:32;;;;;;;11.35;7.35;;;;;;;11.64;75.96;99847.44;4873275;29;20132;-84
2022/09/22 00:52:00;;;;;;;9.48;6.80;;;;;;;11.37;75.91;99784.34;4857793;29;20049;-83
2022/09/22 00:54:26;;;;;;;9.27;6.95;;;;;;;11.79;75.69;99851.59;4865705;29;20483;-85
2022/09/22 00:57:06;;;;;;;10.10;7.50;;;;;;;11.82;75.92;99862.84;4873328;29;20123;-85
2022/09/22 00:59:52;;;;;;;11.57;6.97;;;;;;;11.79;75.84;99841.16;4859674;29;20073;-84
2022/09/22 01:02:19;;;;;;;9.73;7.30;;;;;;;11.33;75.70;99767.91;4872804;29;20048;-82
2022/09/22 01:04:48;;;;;;;9.10;6.72;;;;;;;11.90;75.69;99867.94;4871613;29;20180;-81
2022/09/22 01:07:15;;;;;;;9.40;7.38;;;;;;;11.96;75.56;99860.03;4874934;29;20055;-85
2022/09/22 01:09:41;;;;;;;8.70;6.95;;;;;;;11.80;75.67;99835.91;4873410;29;20068;-82
2022/09/22 01:12:08;;;;;;;11.00;7.45;;;;;;;11.80;75.39;99830.69;4873762;29;20068;-83
2022/09/22 01:15:11;;;;;;;9.23;7.00;;;;;;;12.02;75.58;99875.66;4859155;29;20561;-85
2022/09/22 01:17:47;;;;;;;10.00;7.60;;;;;;;11.83;75.65;99843.69;4871573;29;20147;-83
2022/09/22 01:20:32;;;;;;;8.15;6.45;;;;;;;11.97;75.10;99877.41;4873720;29;20045;-85
2022/09/22 01:23:27;;;;;;;9.88;6.88;;;;;;;11.59;75.27;99829.22;4878270;29;20135;-84
2022/09/22 01:26:11;;;;;;;10.57;7.07;;;;;;;11.84;75.86;99868.91;4879285;29;20650;-81
2022/09/22 01:28:54;;;;;;;9.35;6.75;;;;;;;11.71;75.72;99843.84;4873300;29;20278;-84
2022/09/22 01:31:20;;;;;;;10.95;6.80;;;;;;;11.89;75.53;99881.88;4878206;29;20029;-85
2022/09/22 01:33:57;;;;;;;12.43;6.88;;;;;;;11.83;75.39;99881.94;4899244;29;20056;-85
2022/09/22 01:36:34;;;;;;;11.32;7.07;;;;;;;11.42;75.66;99806.00;4891568;29;20120;-84
2022/09/22 01:39:33;;;;;;;9.38;6.65;;;;;;;11.87;75.68;99867.97;4881450;29;20041;-84
2022/09/22 01:42:02;;;;;;;9.20;6.72;;;;;;;11.90;75.74;99876.66;4851933;29;20071;-82
2022/09/22 01:44:34;;;;;;;8.60;6.10;;;;;;;11.86;75.56;99868.84;4858587;29;20045;-83
2022/09/22 01:47:06;;;;;;;11.10;6.35;;;;;;;11.68;75.84;99831.72;4874184;29;20093;-82
2022/09/22 01:49:37;;;;;;;9.18;6.28;;;;;;;11.68;75.62;99859.56;4879497;29;20044;-81
2022/09/22 01:52:10;;;;;;;11.88;7.43;;;;;;;11.60;75.51;99843.97;4875940;29;20136;-83
2022/09/22 01:54:44;;;;;;;10.90;7.20;;;;;;;11.48;75.00;99825.91;4856171;29;20155;-83
2022/09/22 01:57:18;;;;;;;9.43;6.70;;;;;;;11.58;75.30;99858.81;4872746;29;20064;-82
2022/09/22 01:59:52;;;;;;;10.07;7.40;;;;;;;11.27;75.65;99813.09;4865536;29;20045;-85
2022/09/22 02:02:29;;;;;;;13.13;8.20;;;;;;;11.34;75.67;99847.78;4873949;29;20136;-86
2022/09/22 02:05:00;;;;;;;11.93;7.70;;;;;;;11.68;75.74;99886.47;4875420;29;20067;-84
2022/09/22 02:07:32;;;;;;;9.85;7.38;;;;;;;11.50;75.60;99871.91;4875661;29;20379;-82
2022/09/22 02:10:01;;;;;;;11.50;7.57;;;;;;;11.41;75.93;99843.38;4869746;29;20049;-84
2022/09/22 02:12:29;;;;;;;10.02;7.40;;;;;;;11.62;75.92;99873.50;4893468;29;20425;-83
2022/09/22 02:14:55;;;;;;;10.05;7.53;;;;;;;11.48;76.17;99836.31;4879915;29;20128;-80
2022/09/22 02:17:21;;;;;;;10.57;7.65;;;;;;;11.49;75.68;99832.84;4890535;29;20068;-84
2022/09/22 02:19:47;;;;;;;10.13;7.40;;;;;;;11.67;75.47;99858.66;4890000;29;20096;-82
2022/09/22 02:22:13;;;;;;;12.23;7.82;;;;;;;11.70;75.50;99874.28;4889316;29;20040;-81
2022/09/22 02:24:44;;;;;;;13.27;8.57;;;;;;;11.55;75.77;99832.78;4890175;29;20134;-82
2022/09/22 02:27:25;;;;;;;11.73;8.57;;;;;;;11.77;75.92;99864.63;4890071;29;20115;-84
2022/09/22 02:30:07;;;;;;;11.07;7.67;;;;;;;11.45;75.73;99819.00;4889563;29;20213;-82
2022/09/22 02:32:36;;;;;;;11.32;7.53;;;;;;;11.55;74.84;99858.84;4890258;29;20056;-82
2022/09/22 02:35:02;;;;;;;10.70;7.55;;;;;;;11.44;75.84;99848.53;4873801;29;20045;-84
2022/09/22 02:37:49;;;;;;;9.80;7.18;;;;;;;11.60;75.42;99880.47;4872720;29;20037;-81
2022/09/22 02:40:25;;;;;;;9.70;7.57;;;;;;;11.50;75.59;99887.53;4892083;29;20882;-80
2022/09/22 02:42:56;;;;;;;11.20;7.88;;;;;;;11.44;75.40;99885.03;4893863;29;20056;-85
2022/09/22 02:45:30;;;;;;;12.48;8.25;;;;;;;11.42;75.85;99873.75;4879207;29;20053;-81
2022/09/22 02:48:29;;;;;;;14.60;8.75;;;;;;;11.54;75.85;99881.41;4868203;29;20055;-82
2022/09/22 02:50:56;;;;;;;10.10;7.03;;;;;;;11.57;75.89;99885.75;4860346;29;20101;-82
2022/09/22 02:53:23;;;;;;;11.70;7.53;;;;;;;11.32;75.35;99875.59;4894704;29;20052;-84
2022/09/22 02:55:52;;;;;;;11.85;8.20;;;;;;;10.98;76.11;99823.84;4863223;29;20141;-83
2022/09/22 02:58:22;;;;;;;13.35;8.63;;;;;;;11.19;75.72;99863.56;4877260;29;20406;-82
2022/09/22 03:00:51;;;;;;;12.68;7.60;;;;;;;11.06;76.17;99850.69;4878165;29;20048;-85
2022/09/22 03:03:20;;;;;;;13.13;8.43;;;;;;;10.81;75.57;99824.88;4876363;29;20061;-83
2022/09/22 03:05:46;;;;;;;12.35;9.45;;;;;;;11.24;76.09;99904.34;4878380;29;20049;-85
2022/09/22 03:08:21;;;;;;;;;;;;;;;11.23;75.76;99909.53;4848771;29;20175;-84
2022/09/22 03:10:47;;;;;;;11.48;8.25;;;;;;;11.18;76.69;99888.75;4876613;29;20014;-84
2022/09/22 03:13:13;;;;;;;13.25;8.40;;;;;;;11.15;75.87;99879.22;4853353;29;20128;-85
2022/09/22 03:15:43;;;;;;;13.02;8.27;;;;;;;10.70;75.82;99818.91;4875952;29;20053;-84
2022/09/22 03:18:08;;;;;;;11.95;8.25;;;;;;;11.07;76.09;99878.44;4860616;29;20048;-83
2022/09/22 03:20:35;;;;;;;13.25;8.18;;;;;;;11.09;76.13;99889.72;4863894;29;20048;-88
2022/09/22 03:23:00;;;;;;;13.05;9.13;;;;;;;10.92;76.13;99873.38;4900438;29;20073;-80
2022/09/22 03:25:26;;;;;;;12.15;8.55;;;;;;;11.15;76.57;99907.00;4869619;29;20065;-84
2022/09/22 03:27:52;;;;;;;11.80;8.48;;;;;;;11.00;75.95;99897.59;4887852;29;20049;-83
2022/09/22 03:30:19;;;;;;;10.20;7.60;;;;;;;10.94;75.79;99905.44;4882684;29;20177;-82
2022/09/22 03:32:44;;;;;;;12.07;8.13;;;;;;;11.09;76.55;99922.69;4865880;29;20037;-83
2022/09/22 03:35:11;;;;;;;11.45;8.23;;;;;;;11.09;76.83;99927.88;4874841;29;20064;-80
2022/09/22 03:37:37;;;;;;;12.40;7.97;;;;;;;11.10;76.53;99924.41;4884607;29;20049;-83
2022/09/22 03:40:04;;;;;;;10.88;8.30;;;;;;;10.98;75.92;99920.19;4891560;29;20055;-80
2022/09/22 03:42:31;;;;;;;11.85;8.20;;;;;;;10.81;76.56;99889.94;4886311;29;20049;-82
2022/09/22 03:44:57;;;;;;;14.52;8.52;;;;;;;11.05;76.90;99928.78;4866390;29;20167;-81
2022/09/22 03:47:23;;;;;;;11.25;7.55;;;;;;;10.95;76.30;99905.47;4876577;29;20127;-79
2022/09/22 03:49:50;;;;;;;14.05;8.43;;;;;;;11.14;77.13;99926.97;4878764;29;20044;-83
2022/09/22 03:52:16;;;;;;;12.52;9.05;;;;;;;11.17;76.51;99914.78;4865650;29;20041;-82
2022/09/22 03:54:42;;;;;;;11.95;8.15;;;;;;;11.05;76.81;99895.81;4876982;29;20107;-80
2022/09/22 03:57:08;;;;;;;13.63;8.93;;;;;;;11.07;75.80;99904.47;4881465;29;20037;-81
2022/09/22 03:59:34;;;;;;;13.43;8.20;;;;;;;11.33;76.61;99919.00;4868396;29;20044;-79
2022/09/22 04:02:01;;;;;;;14.05;8.70;;;;;;;11.07;76.01;99880.16;4883548;29;20082;-79
2022/09/22 04:04:27;;;;;;;10.98;8.35;;;;;;;11.08;76.29;99880.16;4882689;29;20068;-82
2022/09/22 04:06:53;;;;;;;11.30;8.23;;;;;;;11.26;76.63;99894.72;4879073;29;20109;-81
2022/09/22 04:09:19;;;;;;;13.93;9.55;;;;;;;11.35;76.29;99896.41;4867056;29;20037;-79
2022/09/22 04:11:45;;;;;;;11.98;8.02;;;;;;;11.36;76.82;99879.91;4880712;29;20052;-84
2022/09/22 04:14:11;;;;;;;12.63;8.32;;;;;;;11.49;76.60;99885.81;4881816;29;20470;-83
2022/09/22 04:16:41;;;;;;;9.75;7.00;;;;;;;11.59;76.60;99868.31;4864043;29;20104;-86
2022/09/22 04:19:08;;;;;;;11.13;7.43;;;;;;;11.69;76.39;99877.75;4864403;29;20064;-83
2022/09/22 04:21:34;;;;;;;11.07;8.25;;;;;;;11.81;76.13;99892.41;4877976;29;20048;-85
2022/09/22 04:24:02;;;;;;;11.45;7.68;;;;;;;11.81;76.16;99878.47;4875436;29;20084;-82
2022/09/22 04:26:28;;;;;;;11.57;7.50;;;;;;;11.86;76.25;99877.56;4876518;29;20049;-85
2022/09/22 04:28:54;;;;;;;13.25;8.00;;;;;;;12.05;75.47;99912.09;4884890;29;20105;-81
2022/09/22 04:31:21;;;;;;;12.60;8.25;;;;;;;12.05;75.85;99911.25;4877875;29;20053;-81
2022/09/22 04:33:47;;;;;;;13.35;8.60;;;;;;;11.77;75.63;99880.28;4877673;29;20600;-80
2022/09/22 04:36:13;;;;;;;13.32;8.52;;;;;;;11.46;74.73;99878.06;4887202;29;20072;-83
2022/09/22 04:38:39;;;;;;;13.40;8.48;;;;;;;11.39;74.88;99897.22;4882876;29;20386;-86
2022/09/22 04:41:05;;;;;;;12.93;9.05;;;;;;;11.26;75.63;99878.25;4886165;29;20048;-86
2022/09/22 04:43:31;;;;;;;15.45;10.18;;;;;;;11.55;75.34;99924.00;4879279;29;20189;-84
2022/09/22 04:45:57;;;;;;;15.07;10.55;;;;;;;11.45;75.72;99895.41;4882369;29;20040;-83
2022/09/22 04:48:25;;;;;;;14.30;10.75;;;;;;;11.51;75.88;99891.88;4884457;29;20048;-79
2022/09/22 04:51:18;;;;;;;13.00;9.25;;;;;;;11.40;74.62;99896.34;4870531;29;20590;-81
2022/09/22 04:53:47;;;;;;;12.45;8.70;;;;;;;11.29;75.17;99901.66;4846643;29;20473;-81
2022/09/22 04:56:13;;;;;;;12.27;8.63;;;;;;;11.27;75.77;99903.41;4855679;29;20040;-82
2022/09/22 04:59:03;;;;;;;14.50;9.32;;;;;;;11.49;75.76;99932.72;4876076;29;20153;-81
2022/09/22 05:02:02;;;;;;;;;;;;;;;;;;;;;
2022/09/22 05:08:41;;;;;;;14.10;9.43;;;;;;;10.75;75.19;99834.50;4887518;29;20064;-81
2022/09/22 05:11:08;;;;;;;13.13;9.02;;;;;;;10.94;76.30;99840.38;4894240;29;20067;-79
2022/09/22 05:13:39;;;;;;;12.68;8.77;;;;;;;11.33;75.52;99874.72;4895022;29;20041;-84
2022/09/22 05:16:18;;;;;;;13.88;9.55;;;;;;;11.46;75.22;99891.06;4882972;29;20425;-80
2022/09/22 05:18:45;;;;;;;14.25;9.40;;;;;;;11.63;75.23;99908.25;4883983;29;20461;-80
2022/09/22 05:21:44;;;;;;;14.93;9.43;;;;;;;11.67;75.43;99878.69;4888068;29;20065;-79
2022/09/22 05:24:15;;;;;;;;;;;;;;;11.85;74.59;99914.06;4874124;29;20056;-82
2022/09/22 05:26:41;;;;;;;11.15;7.70;;;;;;;11.78;75.55;99897.63;4886888;29;19920;-80
2022/09/22 05:29:07;;;;;;;13.70;7.68;;;;;;;12.02;75.22;99911.28;4866545;29;20129;-79
2022/09/22 05:31:33;;;;;;;11.32;7.72;;;;;;;11.87;75.34;99899.25;4882865;29;20045;-81
2022/09/22 05:34:00;;;;;;;13.13;8.00;;;;;;;11.58;75.38;99828.38;4885954;29;20416;-82
2022/09/22 05:36:29;;;;;;;10.55;7.63;;;;;;;11.93;75.54;99867.91;4888426;29;20055;-80
2022/09/22 05:38:59;;;;;;;11.95;6.97;;;;;;;12.19;75.20;99898.03;4888484;29;20073;-81
2022/09/22 05:41:25;;;;;;;12.27;6.93;;;;;;;12.43;74.99;99922.03;4873925;29;20036;-80
2022/09/22 05:43:52;;;;;;;11.95;7.78;;;;;;;12.23;74.79;99876.22;4877281;29;20048;-83
2022/09/22 05:46:21;;;;;;;12.63;7.15;;;;;;;12.09;74.85;99855.56;4893547;29;20053;-80
2022/09/22 05:48:47;;;;;;;10.57;7.80;;;;;;;11.83;74.06;99829.78;4877584;29;20541;-82
2022/09/22 05:51:25;;;;;;;11.85;7.85;;;;;;;12.18;74.10;99914.56;4891233;29;20064;-84
2022/09/22 05:53:55;;;;;;;11.77;8.57;;;;;;;12.26;74.48;99933.56;4874609;29;20041;-84
2022/09/22 05:56:38;;;;;;;14.48;9.40;;;;;;;12.19;74.22;99918.91;4889259;29;20053;-83
2022/09/22 05:59:25;;;;;;;13.45;9.57;;;;;;;12.27;74.13;99921.38;4876532;29;20053;-84
2022/09/22 06:01:56;;;;;;;12.98;9.43;;;;;;;12.24;74.35;99927.53;4861424;29;20041;-83
2022/09/22 06:04:24;;;;;;;11.00;8.10;;;;;;;12.07;73.07;99872.09;4864798;29;20062;-84
2022/09/22 06:06:50;;;;;;;12.20;8.70;;;;;;;12.25;74.03;99877.03;4886571;29;20072;-85
2022/09/22 06:09:16;;;;;;;15.10;11.00;;;;;;;12.31;74.19;99855.25;4885916;29;20081;-83
2022/09/22 06:11:42;;;;;;;12.10;8.38;;;;;;;12.58;72.80;99874.81;4858140;29;20445;-84
2022/09/22 06:14:21;;;;;;;14.10;8.60;;;;;;;12.38;73.63;99850.78;4866857;29;20082;-85
2022/09/22 06:17:11;;;;;;;9.63;6.95;;;;;;;12.99;73.89;99908.97;4859067;29;20053;-80
2022/09/22 06:19:38;;;;;;;11.70;6.63;;;;;;;12.77;73.49;99845.78;4864825;29;20068;-85
2022/09/22 06:22:04;;;;;;;10.30;7.07;;;;;;;13.11;72.67;99919.19;4881027;29;20057;-85
2022/09/22 06:24:30;;;;;;;14.35;10.18;;;;;;;12.97;71.92;99905.53;4879401;29;20150;-84
2022/09/22 06:26:56;;;;;;;14.13;10.40;;;;;;;13.17;73.10;99925.22;4877242;29;20204;-83
2022/09/22 06:29:22;;;;;;;11.50;8.93;;;;;;;12.95;72.03;99879.41;4863706;29;20049;-87
2022/09/22 06:31:48;;;;;;;9.63;7.45;;;;;;;12.95;72.21;99912.53;4868773;29;20246;-87
2022/09/22 06:34:14;;;;;;;12.82;8.18;;;;;;;12.68;71.96;99869.47;4864222;29;20037;-87
2022/09/22 06:36:44;;;;;;;11.98;8.20;;;;;;;12.88;71.86;99918.72;4880656;29;20045;-86
2022/09/22 06:39:11;;;;;;;11.32;8.30;;;;;;;12.69;72.24;99850.31;4867837;29;20069;-84
2022/09/22 06:41:39;;;;;;;10.07;7.40;;;;;;;13.00;71.65;99915.06;4868386;29;20076;-83
2022/09/22 06:44:09;;;;;;;10.80;7.85;;;;;;;12.91;71.86;99900.41;4845847;29;20041;-81
2022/09/22 06:46:36;;;;;;;11.75;8.93;;;;;;;12.72;71.81;99864.16;4853312;29;20068;-84
2022/09/22 06:49:02;;;;;;;10.13;7.43;;;;;;;12.93;71.11;99873.34;4859984;29;20104;-84
2022/09/22 06:51:34;;;;;;;9.82;7.40;;;;;;;13.09;69.71;99933.19;4875853;29;20162;-83
2022/09/22 06:54:02;;;;;;;;;;;;;;;12.81;70.53;99924.03;4882328;29;20540;-86
2022/09/22 06:56:34;;;;;;;12.55;7.97;;;;;;;12.58;71.02;99898.31;4876364;29;19920;-86
2022/09/22 06:59:00;;;;;;;11.60;7.32;;;;;;;12.75;70.98;99918.06;4877229;29;20044;-81
2022/09/22 07:01:28;;;;;;;9.93;6.82;;;;;;;12.41;69.87;99876.84;4878132;29;20087;-82
2022/09/22 07:03:54;;;;;;;12.95;8.02;;;;;;;12.39;70.61;99902.09;4877335;29;20151;-82
2022/09/22 07:06:20;;;;;;;9.95;7.50;;;;;;;12.31;70.96;99879.56;4893223;29;20115;-82
2022/09/22 07:08:49;;;;;;;10.27;7.35;;;;;;;12.52;70.83;99929.72;4864572;29;20576;-83
2022/09/22 07:11:22;;;;;;;9.68;7.10;;;;;;;12.68;71.43;99922.53;4881287;29;20049;-84
2022/09/22 07:13:52;;;;;;;11.68;8.40;;;;;;;12.59;70.76;99883.50;4884862;29;20041;-83
2022/09/22 07:16:21;;;;;;;13.40;8.35;;;;;;;12.72;70.60;99924.22;4881303;29;20057;-83
2022/09/22 07:18:49;;;;;;;10.90;7.70;;;;;;;12.52;71.56;99871.44;4878085;29;20052;-84
2022/09/22 07:21:29;;;;;;;10.73;7.40;;;;;;;12.65;71.75;99875.56;4878841;29;20041;-83
2022/09/22 07:23:56;;;;;;;11.80;6.80;;;;;;;12.60;71.28;99865.22;4864426;29;20037;-85
2022/09/22 07:26:29;;;;;;;10.20;7.03;;;;;;;12.58;71.42;99835.66;4868622;29;20123;-84
2022/09/22 07:29:10;;;;;;;10.13;7.10;;;;;;;12.88;70.26;99896.09;4861228;29;20123;-81
2022/09/22 07:31:36;;;;;;;10.52;7.40;;;;;;;12.72;70.30;99865.88;4863705;29;20061;-84
2022/09/22 07:34:02;;;;;;;12.57;8.77;;;;;;;12.76;70.14;99907.63;4883816;29;20144;-87
2022/09/22 07:36:35;;;;;;;10.75;7.55;;;;;;;12.93;70.60;99940.41;4881942;29;20049;-84
2022/09/22 07:39:09;;;;;;;10.80;7.88;;;;;;;12.25;69.78;99840.53;4843081;29;20140;-86
2022/09/22 07:41:42;;;;;;;11.38;7.85;;;;;;;12.50;70.51;99903.66;4842241;29;20143;-86
2022/09/22 07:46:55;;;;;;;9.45;7.05;;;;;;;12.99;70.46;99955.13;4880981;29;20049;-83
2022/09/22 07:49:21;;;;;;;17.13;7.07;;;;;;;12.53;70.07;99904.50;4885859;29;20055;-84
2022/09/22 07:51:48;;;;;;;9.13;7.00;;;;;;;12.87;70.85;99948.34;4876872;29;20143;-85
2022/09/22 07:54:14;;;;;;;11.85;6.82;;;;;;;13.00;70.31;99938.56;4871210;29;20509;-84
2022/09/22 07:56:43;;;;;;;8.35;6.68;;;;;;;12.79;70.37;99904.06;4876386;29;20145;-84
2022/09/22 07:59:11;;;;;;;12.38;7.20;;;;;;;12.79;70.19;99883.19;4883644;29;20048;-85
2022/09/22 08:01:42;;;;;;;11.85;6.80;;;;;;;12.56;69.70;99860.94;4876736;29;20049;-87
2022/09/22 08:04:17;;;;;;;12.30;9.38;;;;;;;13.11;70.00;99940.09;4854995;29;20707;-84
2022/09/22 08:06:45;;;;;;;16.83;11.57;;;;;;;12.88;69.50;99900.44;4891403;29;20044;-86
2022/09/22 08:09:13;;;;;;;11.95;8.75;;;;;;;12.83;70.22;99903.16;4874924;29;20044;-82
2022/09/22 08:11:47;;;;;;;11.13;8.20;;;;;;;13.15;70.07;99924.38;4874466;29;20599;-85
2022/09/22 08:14:24;;;;;;;10.68;7.72;;;;;;;13.36;70.07;99924.00;4879009;29;20036;-81
2022/09/22 08:16:56;;;;;;;10.40;7.60;;;;;;;13.16;70.25;99871.25;4879361;29;20053;-83
2022/09/22 08:19:32;;;;;;;10.13;7.28;;;;;;;13.62;70.26;99924.41;4879129;29;20120;-84
2022/09/22 08:22:04;;;;;;;10.57;7.45;;;;;;;13.91;69.65;99917.75;4880416;29;20060;-82
2022/09/22 08:24:33;;;;;;;10.35;7.05;;;;;;;13.78;69.58;99875.28;4850450;29;20084;-87
2022/09/22 08:26:59;;;;;;;9.02;6.30;;;;;;;13.92;69.12;99865.38;4875441;29;20108;-85
2022/09/22 08:29:26;;;;;;;8.73;6.72;;;;;;;14.28;69.01;99922.19;4882123;29;20983;-85
2022/09/22 08:31:52;;;;;;;8.90;7.15;;;;;;;14.12;68.52;99896.34;4872757;29;20055;-84
2022/09/22 08:34:18;;;;;;;9.98;7.00;;;;;;;13.94;68.24;99866.22;4858371;29;20139;-85
2022/09/22 08:36:47;;;;;;;10.45;7.60;;;;;;;14.14;68.04;99912.88;4878787;29;20596;-82
2022/09/22 08:39:14;;;;;;;11.95;8.15;;;;;;;14.05;67.46;99907.84;4863813;29;20056;-83
2022/09/22 08:42:07;;;;;;;11.95;8.57;;;;;;;14.08;67.62;99936.56;4871744;29;20045;-85
2022/09/22 08:44:40;;;;;;;13.07;7.90;;;;;;;13.94;68.20;99922.91;4881161;29;20072;-82
2022/09/22 08:47:14;;;;;;;12.30;7.78;;;;;;;13.92;68.10;99914.22;4869627;29;20181;-81
2022/09/22 08:52:39;;;;;;;10.23;7.22;;;;;;;13.85;67.53;99944.91;4885380;29;20100;-84
2022/09/22 08:55:20;;;;;;;9.95;7.22;;;;;;;13.55;67.26;99927.16;4864957;29;20057;-82
2022/09/22 08:58:27;;;;;;;10.95;7.28;;;;;;;13.80;68.36;99949.34;4873163;29;20466;-83
2022/09/22 09:01:19;;;;;;;11.57;7.55;;;;;;;13.82;68.14;99930.09;4868498;29;20080;-81
2022/09/22 09:04:02;;;;;;;8.85;6.40;;;;;;;13.93;67.91;99956.03;4866147;29;20057;-81
2022/09/22 09:07:05;;;;;;;9.20;6.53;;;;;;;13.69;67.01;99960.03;4865461;29;20053;-82
2022/09/22 09:09:43;;;;;;;10.20;7.80;;;;;;;13.36;67.29;99926.59;4864877;29;20060;-80
2022/09/22 09:12:22;;;;;;;11.05;7.32;;;;;;;13.34;67.64;99911.84;4887056;29;20053;-82
2022/09/22 09:15:28;;;;;;;11.63;8.23;;;;;;;13.79;67.85;99951.09;4884482;29;20433;-82
2022/09/22 09:18:02;;;;;;;13.38;8.98;;;;;;;13.73;66.94;99951.22;4891298;29;20037;-82
2022/09/22 09:20:31;;;;;;;10.75;7.43;;;;;;;13.79;68.12;99956.31;4880791;29;20041;-83
2022/09/22 09:22:59;;;;;;;10.30;8.10;;;;;;;13.67;66.83;99933.91;4880825;29;20051;-84
2022/09/22 09:25:41;;;;;;;9.70;6.85;;;;;;;13.87;68.00;99950.97;4883225;29;20041;-82
2022/09/22 09:28:31;;;;;;;8.70;7.30;;;;;;;14.16;67.33;99925.91;4881206;29;20044;-87
2022/09/22 09:31:20;;;;;;;10.38;6.38;;;;;;;14.50;66.32;99938.28;4871595;29;20087;-80
2022/09/22 09:34:13;;;;;;;11.75;6.93;;;;;;;14.42;66.92;99948.06;4844734;29;20084;-79
2022/09/22 09:36:44;;;;;;;9.30;6.90;;;;;;;14.39;66.88;99907.09;4865069;29;20045;-85
2022/09/22 09:39:25;;;;;;;8.70;6.82;;;;;;;14.70;66.67;99911.63;4870121;29;20610;-84
2022/09/22 09:41:52;;;;;;;8.93;6.50;;;;;;;15.15;66.62;99923.63;4878601;29;20418;-82
2022/09/22 09:44:38;;;;;;;7.55;6.03;;;;;;;15.69;66.39;99907.34;4880202;29;20052;-82
2022/09/22 09:47:26;;;;;;;7.55;5.80;;;;;;;15.92;64.67;99932.94;4882236;29;20037;-86
2022/09/22 09:49:55;;;;;;;7.68;6.22;;;;;;;15.95;64.38;99932.88;4853611;29;20053;-85
2022/09/22 09:52:27;;;;;;;7.65;6.13;;;;;;;15.64;63.20;99882.09;4893892;29;20131;-90
2022/09/22 09:54:54;;;;;;;7.45;5.85;;;;;;;16.22;63.77;99936.44;4874428;29;20051;-85
2022/09/22 09:57:21;;;;;;;8.57;6.22;;;;;;;16.72;63.93;99924.41;4874106;29;20049;-86
2022/09/22 10:03:09;;;;;;;8.35;6.25;;;;;;;17.38;61.57;99910.81;4872993;29;20068;-87
2022/09/22 10:05:58;;;;;;;8.68;6.53;;;;;;;17.38;61.63;99887.16;4888398;29;20053;-87
2022/09/22 10:08:56;;;;;;;7.95;6.03;;;;;;;17.34;60.78;99843.47;4871987;29;20093;-87
2022/09/22 10:11:31;;;;;;;7.40;6.38;;;;;;;17.93;60.20;99917.63;4873769;29;20470;-81
2022/09/22 10:13:57;;;;;;;8.20;5.68;;;;;;;18.14;59.78;99913.34;4871300;29;20045;-81
2022/09/22 10:16:27;;;;;;;9.80;6.20;;;;;;;18.23;59.52;99875.25;4858741;29;20113;-85
2022/09/22 10:19:20;;;;;;;8.57;6.05;;;;;;;19.00;58.32;99904.72;4874584;29;20045;-84
2022/09/22 10:21:47;;;;;;;8.18;5.93;;;;;;;18.93;57.18;99868.03;4881458;29;20116;-81
2022/09/22 10:24:30;;;;;;;7.80;5.78;;;;;;;19.08;56.85;99899.97;4882681;29;20112;-84
2022/09/22 10:26:57;;;;;;;6.60;5.63;;;;;;;18.98;56.12;99893.38;4887280;29;20045;-85
2022/09/22 10:29:26;;;;;;;8.98;5.65;;;;;;;18.87;55.93;99881.44;4883573;29;20053;-86
2022/09/22 10:32:25;;;;;;;6.68;5.50;;;;;;;18.27;55.78;99812.81;4867650;29;20053;-87
2022/09/22 10:34:53;;;;;;;8.02;5.93;;;;;;;18.23;55.23;99853.34;4895798;29;20103;-83
2022/09/22 10:37:26;;;;;;;8.80;6.93;;;;;;;18.42;55.40;99849.06;4891205;29;20049;-81
2022/09/22 10:39:57;;;;;;;8.07;6.90;;;;;;;18.65;55.32;99879.72;4882962;29;20528;-84
2022/09/22 10:42:36;;;;;;;8.52;6.97;;;;;;;18.66;55.45;99855.06;4860682;29;20053;-82
2022/09/22 10:45:08;;;;;;;5.90;5.15;;;;;;;19.10;54.98;99895.47;4861086;29;20443;-84
2022/09/22 10:48:11;;;;;;;6.85;5.13;;;;;;;19.36;54.56;99882.94;4891702;29;20048;-84
2022/09/22 10:50:57;;;;;;;6.32;5.50;;;;;;;18.82;54.12;99810.47;4888415;29;20055;-83
2022/09/22 10:54:07;;;;;;;6.25;5.65;;;;;;;19.33;54.09;99881.31;4883994;29;20097;-82
2022/09/22 10:56:37;;;;;;;8.70;6.22;;;;;;;19.08;53.25;99877.09;4887599;29;20109;-83
2022/09/22 10:59:43;;;;;;;6.70;5.43;;;;;;;18.33;53.69;99841.50;4874060;29;20394;-81
2022/09/22 11:02:46;;;;;;;9.35;5.95;;;;;;;18.51;54.07;99889.97;4858157;29;20570;-86
2022/09/22 11:14:24;;;;;;;7.32;5.95;;;;;;;18.56;53.68;99876.59;4877344;29;20041;-84
2022/09/22 11:16:50;;;;;;;7.10;5.28;;;;;;;18.28;52.85;99872.47;4869989;29;20049;-83
2022/09/22 11:19:24;;;;;;;7.30;6.00;;;;;;;18.00;54.49;99829.63;4877083;29;20504;-87
2022/09/22 11:21:53;;;;;;;9.63;6.43;;;;;;;18.30;53.81;99871.47;4892832;29;20044;-84
2022/09/22 11:24:39;;;;;;;8.30;6.30;;;;;;;18.48;54.08;99856.72;4891481;29;20586;-84
2022/09/22 11:27:17;;;;;;;8.30;6.57;;;;;;;18.50;53.68;99854.88;4877811;29;20082;-83
2022/09/22 11:30:08;;;;;;;9.35;7.18;;;;;;;18.31;53.81;99867.91;4891284;29;20458;-83
2022/09/22 11:32:47;;;;;;;10.63;7.27;;;;;;;18.20;53.32;99864.88;4874574;29;20049;-82
2022/09/22 11:35:31;;;;;;;8.98;6.65;;;;;;;18.05;54.03;99872.44;4892556;29;20587;-84
2022/09/22 11:38:03;;;;;;;10.18;7.45;;;;;;;17.86;54.45;99867.00;4842981;29;20052;-85
2022/09/22 11:40:35;;;;;;;9.65;7.03;;;;;;;17.76;54.52;99870.88;4870944;29;20045;-86
2022/09/22 11:43:32;;;;;;;13.05;7.20;;;;;;;17.67;54.66;99865.94;4890437;29;20498;-82
2022/09/22 11:46:46;;;;;;;10.82;7.55;;;;;;;17.52;54.79;99864.78;4874338;29;20060;-82
2022/09/22 11:49:54;;;;;;;12.13;7.60;;;;;;;17.50;55.49;99864.81;4867029;29;20041;-84
2022/09/22 11:52:58;;;;;;;8.05;6.85;;;;;;;17.50;55.90;99842.94;4880093;29;20045;-85
2022/09/22 11:55:55;;;;;;;8.63;6.40;;;;;;;17.92;55.61;99850.97;4854595;29;20073;-85
2022/09/22 11:58:43;;;;;;;8.20;6.80;;;;;;;17.88;55.66;99801.97;4889873;29;20044;-84
2022/09/22 12:01:23;;;;;;;7.40;6.57;;;;;;;18.12;55.36;99825.66;4882904;29;20112;-83
2022/09/22 12:04:22;;;;;;;7.88;6.28;;;;;;;18.42;54.89;99841.16;4872446;29;20076;-82
2022/09/22 12:06:55;;;;;;;8.57;6.15;;;;;;;18.25;54.87;99791.78;4871426;29;20045;-83
2022/09/22 12:09:54;;;;;;;9.73;6.32;;;;;;;18.57;54.61;99842.31;4860087;29;20105;-83
2022/09/22 12:12:36;;;;;;;6.72;5.85;;;;;;;18.50;54.01;99836.44;4883227;29;20065;-81
2022/09/22 12:15:25;;;;;;;8.90;6.10;;;;;;;18.49;54.24;99845.25;4850496;29;20092;-84
2022/09/22 12:18:09;;;;;;;7.25;6.30;;;;;;;18.29;54.16;99853.13;4872751;29;20041;-82
2022/09/22 12:20:50;;;;;;;9.18;6.97;;;;;;;17.89;53.92;99831.81;4857154;29;20045;-81
2022/09/22 12:23:36;;;;;;;8.45;6.85;;;;;;;17.70;54.47;99821.13;4879519;29;20113;-82